sensor_id;sensor_type;location;lat;lon;timestamp;temperature;humidity
15983;DHT22;14442;50.196;8.096;2024-02-21T00:02:18;24.20;44.50
15983;DHT22;14442;50.196;8.096;2024-02-21T00:04:44;24.20;44.40
15983;DHT22;14442;50.196;8.096;2024-02-21T00:07:11;24.20;44.40
15983;DHT22;14442;50.196;8.096;2024-02-21T00:09:38;24.10;44.50
15983;DHT22;14442;50.196;8.096;2024-02-21T00:12:06;24.00;44.50
15983;DHT22;14442;50.196;8.096;2024-02-21T00:14:33;23.90;44.40
15983;DHT22;14442;50.196;8.096;2024-02-21T00:16:59;23.80;44.30
15983;DHT22;14442;50.196;8.096;2024-02-21T00:19:26;23.80;44.30
15983;DHT22;14442;50.196;8.096;2024-02-21T00:21:52;23.80;44.20
15983;DHT22;14442;50.196;8.096;2024-02-21T00:24:19;23.70;44.10
15983;DHT22;14442;50.196;8.096;2024-02-21T00:26:46;23.70;44.10
15983;DHT22;14442;50.196;8.096;2024-02-21T00:29:14;23.70;44.10
15983;DHT22;14442;50.196;8.096;2024-02-21T00:31:40;23.70;44.00
15983;DHT22;14442;50.196;8.096;2024-02-21T00:34:07;23.60;43.90
15983;DHT22;14442;50.196;8.096;2024-02-21T00:36:33;23.70;43.90
15983;DHT22;14442;50.196;8.096;2024-02-21T00:39:00;23.70;43.90
15983;DHT22;14442;50.196;8.096;2024-02-21T00:41:26;23.60;43.90
15983;DHT22;14442;50.196;8.096;2024-02-21T00:43:53;23.60;43.80
15983;DHT22;14442;50.196;8.096;2024-02-21T00:46:21;23.60;43.80
15983;DHT22;14442;50.196;8.096;2024-02-21T00:48:48;23.60;43.80
15983;DHT22;14442;50.196;8.096;2024-02-21T00:51:15;23.60;43.70
15983;DHT22;14442;50.196;8.096;2024-02-21T00:53:42;23.60;43.70
15983;DHT22;14442;50.196;8.096;2024-02-21T00:56:09;23.60;43.70
15983;DHT22;14442;50.196;8.096;2024-02-21T00:58:35;23.50;43.60
15983;DHT22;14442;50.196;8.096;2024-02-21T01:01:02;23.60;43.60
15983;DHT22;14442;50.196;8.096;2024-02-21T01:03:30;23.60;43.60
15983;DHT22;14442;50.196;8.096;2024-02-21T01:05:56;23.60;43.60
15983;DHT22;14442;50.196;8.096;2024-02-21T01:08:23;23.60;43.60
15983;DHT22;14442;50.196;8.096;2024-02-21T01:10:50;23.60;43.50
15983;DHT22;14442;50.196;8.096;2024-02-21T01:13:17;23.60;43.60
15983;DHT22;14442;50.196;8.096;2024-02-21T01:15:43;23.60;43.50
15983;DHT22;14442;50.196;8.096;2024-02-21T01:18:10;23.60;43.50
15983;DHT22;14442;50.196;8.096;2024-02-21T01:20:38;23.60;43.60
15983;DHT22;14442;50.196;8.096;2024-02-21T01:23:05;23.50;43.40
15983;DHT22;14442;50.196;8.096;2024-02-21T01:25:31;23.50;43.50
15983;DHT22;14442;50.196;8.096;2024-02-21T01:27:58;23.50;43.50
15983;DHT22;14442;50.196;8.096;2024-02-21T01:30:24;23.60;43.60
15983;DHT22;14442;50.196;8.096;2024-02-21T01:32:51;23.60;43.60
15983;DHT22;14442;50.196;8.096;2024-02-21T01:35:18;23.50;43.50
15983;DHT22;14442;50.196;8.096;2024-02-21T01:37:45;23.50;43.40
15983;DHT22;14442;50.196;8.096;2024-02-21T01:40:12;23.60;43.60
15983;DHT22;14442;50.196;8.096;2024-02-21T01:42:39;23.50;43.50
15983;DHT22;14442;50.196;8.096;2024-02-21T01:45:06;23.50;43.50
15983;DHT22;14442;50.196;8.096;2024-02-21T01:47:33;23.50;43.40
15983;DHT22;14442;50.196;8.096;2024-02-21T01:49:59;23.50;43.40
15983;DHT22;14442;50.196;8.096;2024-02-21T01:52:27;23.50;43.50
15983;DHT22;14442;50.196;8.096;2024-02-21T01:54:55;23.50;43.40
15983;DHT22;14442;50.196;8.096;2024-02-21T01:57:22;23.50;43.50
15983;DHT22;14442;50.196;8.096;2024-02-21T01:59:49;23.40;43.50
15983;DHT22;14442;50.196;8.096;2024-02-21T02:02:16;23.50;43.40
15983;DHT22;14442;50.196;8.096;2024-02-21T02:04:44;23.50;44.10
15983;DHT22;14442;50.196;8.096;2024-02-21T02:07:11;23.50;43.50
15983;DHT22;14442;50.196;8.096;2024-02-21T02:09:37;23.40;44.10
15983;DHT22;14442;50.196;8.096;2024-02-21T02:12:06;23.40;43.40
15983;DHT22;14442;50.196;8.096;2024-02-21T02:14:33;23.40;43.40
15983;DHT22;14442;50.196;8.096;2024-02-21T02:16:59;23.40;43.40
15983;DHT22;14442;50.196;8.096;2024-02-21T02:19:26;23.40;43.50
15983;DHT22;14442;50.196;8.096;2024-02-21T02:21:53;23.40;43.50
15983;DHT22;14442;50.196;8.096;2024-02-21T02:24:24;23.40;43.40
15983;DHT22;14442;50.196;8.096;2024-02-21T02:26:50;23.40;43.50
15983;DHT22;14442;50.196;8.096;2024-02-21T02:29:17;23.40;43.50
15983;DHT22;14442;50.196;8.096;2024-02-21T02:31:44;23.40;43.50
15983;DHT22;14442;50.196;8.096;2024-02-21T02:34:11;23.40;43.50
15983;DHT22;14442;50.196;8.096;2024-02-21T02:36:37;23.40;43.50
15983;DHT22;14442;50.196;8.096;2024-02-21T02:39:04;23.40;43.50
15983;DHT22;14442;50.196;8.096;2024-02-21T02:41:35;23.40;43.40
15983;DHT22;14442;50.196;8.096;2024-02-21T02:44:02;23.30;43.40
15983;DHT22;14442;50.196;8.096;2024-02-21T02:46:28;23.30;43.30
15983;DHT22;14442;50.196;8.096;2024-02-21T02:48:55;23.30;43.40
15983;DHT22;14442;50.196;8.096;2024-02-21T02:51:22;23.30;43.30
15983;DHT22;14442;50.196;8.096;2024-02-21T02:53:48;23.30;43.40
15983;DHT22;14442;50.196;8.096;2024-02-21T02:56:15;23.30;43.40
15983;DHT22;14442;50.196;8.096;2024-02-21T02:58:43;23.30;43.40
15983;DHT22;14442;50.196;8.096;2024-02-21T03:01:10;23.30;43.40
15983;DHT22;14442;50.196;8.096;2024-02-21T03:03:37;23.30;43.50
15983;DHT22;14442;50.196;8.096;2024-02-21T03:06:04;23.30;43.40
15983;DHT22;14442;50.196;8.096;2024-02-21T03:08:31;23.30;43.40
15983;DHT22;14442;50.196;8.096;2024-02-21T03:10:58;23.30;43.50
15983;DHT22;14442;50.196;8.096;2024-02-21T03:13:24;23.30;43.50
15983;DHT22;14442;50.196;8.096;2024-02-21T03:15:52;23.30;43.40
15983;DHT22;14442;50.196;8.096;2024-02-21T03:18:19;23.20;43.30
15983;DHT22;14442;50.196;8.096;2024-02-21T03:20:45;23.20;43.30
15983;DHT22;14442;50.196;8.096;2024-02-21T03:23:12;23.30;43.50
15983;DHT22;14442;50.196;8.096;2024-02-21T03:25:39;23.20;43.40
15983;DHT22;14442;50.196;8.096;2024-02-21T03:28:05;23.20;43.40
15983;DHT22;14442;50.196;8.096;2024-02-21T03:30:32;23.20;43.40
15983;DHT22;14442;50.196;8.096;2024-02-21T03:33:00;23.20;43.50
15983;DHT22;14442;50.196;8.096;2024-02-21T03:35:27;23.20;43.40
15983;DHT22;14442;50.196;8.096;2024-02-21T03:37:54;23.20;43.50
15983;DHT22;14442;50.196;8.096;2024-02-21T03:40:20;23.20;43.50
15983;DHT22;14442;50.196;8.096;2024-02-21T03:42:47;23.10;43.40
15983;DHT22;14442;50.196;8.096;2024-02-21T03:45:13;23.10;43.40
15983;DHT22;14442;50.196;8.096;2024-02-21T03:47:40;23.10;43.40
15983;DHT22;14442;50.196;8.096;2024-02-21T03:50:08;23.10;43.40
15983;DHT22;14442;50.196;8.096;2024-02-21T03:52:35;23.10;43.40
15983;DHT22;14442;50.196;8.096;2024-02-21T03:55:02;23.20;43.60
15983;DHT22;14442;50.196;8.096;2024-02-21T03:57:28;23.10;43.50
15983;DHT22;14442;50.196;8.096;2024-02-21T03:59:55;23.10;43.50
15983;DHT22;14442;50.196;8.096;2024-02-21T04:02:22;23.10;43.50
15983;DHT22;14442;50.196;8.096;2024-02-21T04:04:48;23.10;43.50
15983;DHT22;14442;50.196;8.096;2024-02-21T04:07:16;23.10;43.50
15983;DHT22;14442;50.196;8.096;2024-02-21T04:09:43;23.00;43.40
15983;DHT22;14442;50.196;8.096;2024-02-21T04:12:09;23.00;43.50
15983;DHT22;14442;50.196;8.096;2024-02-21T04:14:36;23.00;43.60
15983;DHT22;14442;50.196;8.096;2024-02-21T04:17:02;23.00;43.60
15983;DHT22;14442;50.196;8.096;2024-02-21T04:19:30;23.00;43.70
15983;DHT22;14442;50.196;8.096;2024-02-21T04:21:57;23.00;43.60
15983;DHT22;14442;50.196;8.096;2024-02-21T04:24:25;23.00;43.70
15983;DHT22;14442;50.196;8.096;2024-02-21T04:26:51;23.00;43.70
15983;DHT22;14442;50.196;8.096;2024-02-21T04:29:18;22.90;43.50
15983;DHT22;14442;50.196;8.096;2024-02-21T04:31:45;22.90;44.30
15983;DHT22;14442;50.196;8.096;2024-02-21T04:34:11;22.90;43.60
15983;DHT22;14442;50.196;8.096;2024-02-21T04:36:38;22.90;43.60
15983;DHT22;14442;50.196;8.096;2024-02-21T04:39:04;22.90;43.60
15983;DHT22;14442;50.196;8.096;2024-02-21T04:41:32;22.90;43.60
15983;DHT22;14442;50.196;8.096;2024-02-21T04:43:59;22.90;44.20
15983;DHT22;14442;50.196;8.096;2024-02-21T04:46:25;22.90;43.60
15983;DHT22;14442;50.196;8.096;2024-02-21T04:48:52;22.90;43.60
15983;DHT22;14442;50.196;8.096;2024-02-21T04:51:19;22.90;43.60
15983;DHT22;14442;50.196;8.096;2024-02-21T04:53:45;22.80;43.60
15983;DHT22;14442;50.196;8.096;2024-02-21T04:56:12;22.80;43.60
15983;DHT22;14442;50.196;8.096;2024-02-21T04:58:40;22.80;43.60
15983;DHT22;14442;50.196;8.096;2024-02-21T05:01:06;22.80;43.60
15983;DHT22;14442;50.196;8.096;2024-02-21T05:03:33;22.80;43.60
15983;DHT22;14442;50.196;8.096;2024-02-21T05:05:59;22.70;43.50
15983;DHT22;14442;50.196;8.096;2024-02-21T05:08:26;22.70;43.60
15983;DHT22;14442;50.196;8.096;2024-02-21T05:10:53;22.70;43.60
15983;DHT22;14442;50.196;8.096;2024-02-21T05:13:20;22.70;43.60
15983;DHT22;14442;50.196;8.096;2024-02-21T05:15:48;22.70;43.80
15983;DHT22;14442;50.196;8.096;2024-02-21T05:18:15;22.60;43.70
15983;DHT22;14442;50.196;8.096;2024-02-21T05:20:41;22.60;43.80
15983;DHT22;14442;50.196;8.096;2024-02-21T05:23:08;22.60;43.70
15983;DHT22;14442;50.196;8.096;2024-02-21T05:25:35;22.60;43.80
15983;DHT22;14442;50.196;8.096;2024-02-21T05:28:01;22.60;43.80
15983;DHT22;14442;50.196;8.096;2024-02-21T05:30:28;22.60;43.90
15983;DHT22;14442;50.196;8.096;2024-02-21T05:32:56;22.60;43.90
15983;DHT22;14442;50.196;8.096;2024-02-21T05:35:25;22.60;43.90
15983;DHT22;14442;50.196;8.096;2024-02-21T05:37:51;22.60;43.90
15983;DHT22;14442;50.196;8.096;2024-02-21T05:40:18;22.60;43.80
15983;DHT22;14442;50.196;8.096;2024-02-21T05:42:45;22.60;43.70
15983;DHT22;14442;50.196;8.096;2024-02-21T05:45:12;22.60;43.80
15983;DHT22;14442;50.196;8.096;2024-02-21T05:47:38;22.60;43.80
15983;DHT22;14442;50.196;8.096;2024-02-21T05:50:06;22.50;43.70
15983;DHT22;14442;50.196;8.096;2024-02-21T05:52:34;22.60;43.70
15983;DHT22;14442;50.196;8.096;2024-02-21T05:55:00;22.60;43.80
15983;DHT22;14442;50.196;8.096;2024-02-21T05:57:27;22.60;43.80
15983;DHT22;14442;50.196;8.096;2024-02-21T05:59:53;22.60;43.80
15983;DHT22;14442;50.196;8.096;2024-02-21T06:02:20;22.60;43.70
15983;DHT22;14442;50.196;8.096;2024-02-21T06:04:46;22.60;43.70
15983;DHT22;14442;50.196;8.096;2024-02-21T06:07:14;22.60;43.60
15983;DHT22;14442;50.196;8.096;2024-02-21T06:09:41;22.70;43.50
15983;DHT22;14442;50.196;8.096;2024-02-21T06:12:08;22.70;43.50
15983;DHT22;14442;50.196;8.096;2024-02-21T06:14:34;22.70;43.40
15983;DHT22;14442;50.196;8.096;2024-02-21T06:17:01;22.70;43.40
15983;DHT22;14442;50.196;8.096;2024-02-21T06:19:27;22.70;43.30
15983;DHT22;14442;50.196;8.096;2024-02-21T06:21:54;22.70;43.20
15983;DHT22;14442;50.196;8.096;2024-02-21T06:24:22;22.70;43.30
15983;DHT22;14442;50.196;8.096;2024-02-21T06:26:48;22.80;43.30
15983;DHT22;14442;50.196;8.096;2024-02-21T06:29:15;22.80;43.40
15983;DHT22;14442;50.196;8.096;2024-02-21T06:31:42;22.80;43.30
15983;DHT22;14442;50.196;8.096;2024-02-21T06:34:08;22.80;43.30
15983;DHT22;14442;50.196;8.096;2024-02-21T06:36:35;22.80;43.20
15983;DHT22;14442;50.196;8.096;2024-02-21T06:39:01;22.80;43.20
15983;DHT22;14442;50.196;8.096;2024-02-21T06:41:34;22.80;43.20
15983;DHT22;14442;50.196;8.096;2024-02-21T06:44:01;22.90;43.30
15983;DHT22;14442;50.196;8.096;2024-02-21T06:46:28;22.90;43.20
15983;DHT22;14442;50.196;8.096;2024-02-21T06:48:55;22.90;43.20
15983;DHT22;14442;50.196;8.096;2024-02-21T06:51:22;22.90;43.20
15983;DHT22;14442;50.196;8.096;2024-02-21T06:53:49;23.00;43.20
15983;DHT22;14442;50.196;8.096;2024-02-21T06:56:16;22.90;43.20
15983;DHT22;14442;50.196;8.096;2024-02-21T06:58:44;22.90;43.20
15983;DHT22;14442;50.196;8.096;2024-02-21T07:01:10;22.90;43.20
15983;DHT22;14442;50.196;8.096;2024-02-21T07:03:37;22.90;43.10
15983;DHT22;14442;50.196;8.096;2024-02-21T07:06:04;22.90;43.10
15983;DHT22;14442;50.196;8.096;2024-02-21T07:08:30;22.90;43.20
15983;DHT22;14442;50.196;8.096;2024-02-21T07:10:57;22.90;43.20
15983;DHT22;14442;50.196;8.096;2024-02-21T07:13:23;22.90;43.10
15983;DHT22;14442;50.196;8.096;2024-02-21T07:15:51;22.90;43.10
15983;DHT22;14442;50.196;8.096;2024-02-21T07:18:18;22.90;43.10
15983;DHT22;14442;50.196;8.096;2024-02-21T07:20:45;23.00;43.20
15983;DHT22;14442;50.196;8.096;2024-02-21T07:23:11;22.90;43.00
15983;DHT22;14442;50.196;8.096;2024-02-21T07:25:38;23.00;43.10
15983;DHT22;14442;50.196;8.096;2024-02-21T07:28:05;23.00;43.20
15983;DHT22;14442;50.196;8.096;2024-02-21T07:30:32;23.00;43.20
15983;DHT22;14442;50.196;8.096;2024-02-21T07:32:59;23.00;43.10
15983;DHT22;14442;50.196;8.096;2024-02-21T07:35:26;23.00;43.10
15983;DHT22;14442;50.196;8.096;2024-02-21T07:37:53;23.00;43.10
15983;DHT22;14442;50.196;8.096;2024-02-21T07:40:19;23.00;43.10
15983;DHT22;14442;50.196;8.096;2024-02-21T07:42:46;23.00;43.00
15983;DHT22;14442;50.196;8.096;2024-02-21T07:45:12;23.00;43.10
15983;DHT22;14442;50.196;8.096;2024-02-21T07:47:39;23.00;43.10
15983;DHT22;14442;50.196;8.096;2024-02-21T07:50:07;23.00;43.10
15983;DHT22;14442;50.196;8.096;2024-02-21T07:52:34;23.00;43.00
15983;DHT22;14442;50.196;8.096;2024-02-21T07:55:01;23.00;43.20
15983;DHT22;14442;50.196;8.096;2024-02-21T07:57:28;23.00;43.10
15983;DHT22;14442;50.196;8.096;2024-02-21T07:59:55;23.00;43.10
15983;DHT22;14442;50.196;8.096;2024-02-21T08:02:21;23.00;43.10
15983;DHT22;14442;50.196;8.096;2024-02-21T08:04:48;23.00;43.00
15983;DHT22;14442;50.196;8.096;2024-02-21T08:07:16;23.00;43.10
15983;DHT22;14442;50.196;8.096;2024-02-21T08:09:43;23.00;43.20
15983;DHT22;14442;50.196;8.096;2024-02-21T08:12:09;23.00;43.20
15983;DHT22;14442;50.196;8.096;2024-02-21T08:14:36;23.00;43.10
15983;DHT22;14442;50.196;8.096;2024-02-21T08:17:02;23.00;43.10
15983;DHT22;14442;50.196;8.096;2024-02-21T08:19:29;23.00;43.80
15983;DHT22;14442;50.196;8.096;2024-02-21T08:21:56;22.90;43.00
15983;DHT22;14442;50.196;8.096;2024-02-21T08:24:24;23.00;43.00
15983;DHT22;14442;50.196;8.096;2024-02-21T08:26:50;22.90;43.00
15983;DHT22;14442;50.196;8.096;2024-02-21T08:29:17;23.00;43.10
15983;DHT22;14442;50.196;8.096;2024-02-21T08:31:43;22.90;43.00
15983;DHT22;14442;50.196;8.096;2024-02-21T08:34:10;23.00;43.10
15983;DHT22;14442;50.196;8.096;2024-02-21T08:36:38;22.90;43.00
15983;DHT22;14442;50.196;8.096;2024-02-21T08:39:05;22.90;43.10
15983;DHT22;14442;50.196;8.096;2024-02-21T08:41:33;22.90;43.00
15983;DHT22;14442;50.196;8.096;2024-02-21T08:43:59;23.00;43.20
15983;DHT22;14442;50.196;8.096;2024-02-21T08:46:26;22.90;43.10
15983;DHT22;14442;50.196;8.096;2024-02-21T08:48:53;23.00;43.20
15983;DHT22;14442;50.196;8.096;2024-02-21T08:51:20;22.90;43.00
15983;DHT22;14442;50.196;8.096;2024-02-21T08:53:47;22.90;43.10
15983;DHT22;14442;50.196;8.096;2024-02-21T08:56:13;22.90;43.10
15983;DHT22;14442;50.196;8.096;2024-02-21T08:58:41;22.90;43.10
15983;DHT22;14442;50.196;8.096;2024-02-21T09:01:08;22.90;43.10
15983;DHT22;14442;50.196;8.096;2024-02-21T09:03:35;22.90;43.20
15983;DHT22;14442;50.196;8.096;2024-02-21T09:06:02;22.90;43.10
15983;DHT22;14442;50.196;8.096;2024-02-21T09:08:29;22.90;43.10
15983;DHT22;14442;50.196;8.096;2024-02-21T09:10:56;22.90;43.10
15983;DHT22;14442;50.196;8.096;2024-02-21T09:13:22;22.90;43.10
15983;DHT22;14442;50.196;8.096;2024-02-21T09:15:51;22.90;43.10
15983;DHT22;14442;50.196;8.096;2024-02-21T09:18:17;22.90;43.20
15983;DHT22;14442;50.196;8.096;2024-02-21T09:20:44;22.90;43.20
15983;DHT22;14442;50.196;8.096;2024-02-21T09:23:13;23.00;43.10
15983;DHT22;14442;50.196;8.096;2024-02-21T09:25:39;23.00;43.00
15983;DHT22;14442;50.196;8.096;2024-02-21T09:28:06;23.10;43.60
15983;DHT22;14442;50.196;8.096;2024-02-21T09:30:33;23.10;42.90
15983;DHT22;14442;50.196;8.096;2024-02-21T09:33:01;23.10;42.90
15983;DHT22;14442;50.196;8.096;2024-02-21T09:35:27;23.10;42.90
15983;DHT22;14442;50.196;8.096;2024-02-21T09:37:54;23.10;42.80
15983;DHT22;14442;50.196;8.096;2024-02-21T09:40:20;23.10;43.40
15983;DHT22;14442;50.196;8.096;2024-02-21T09:42:47;23.10;42.80
15983;DHT22;14442;50.196;8.096;2024-02-21T09:45:15;23.10;42.70
15983;DHT22;14442;50.196;8.096;2024-02-21T09:47:46;23.20;42.80
15983;DHT22;14442;50.196;8.096;2024-02-21T09:50:18;23.10;43.40
15983;DHT22;14442;50.196;8.096;2024-02-21T09:52:46;23.20;42.80
15983;DHT22;14442;50.196;8.096;2024-02-21T09:55:14;23.20;42.80
15983;DHT22;14442;50.196;8.096;2024-02-21T09:57:41;23.20;42.80
15983;DHT22;14442;50.196;8.096;2024-02-21T10:00:10;23.20;42.70
15983;DHT22;14442;50.196;8.096;2024-02-21T10:02:38;23.20;42.80
15983;DHT22;14442;50.196;8.096;2024-02-21T10:05:05;23.10;42.80
15983;DHT22;14442;50.196;8.096;2024-02-21T10:07:34;23.10;42.80
15983;DHT22;14442;50.196;8.096;2024-02-21T10:10:01;23.10;43.00
15983;DHT22;14442;50.196;8.096;2024-02-21T10:12:28;23.00;43.00
15983;DHT22;14442;50.196;8.096;2024-02-21T10:14:59;23.10;42.80
15983;DHT22;14442;50.196;8.096;2024-02-21T10:17:26;23.30;42.50
15983;DHT22;14442;50.196;8.096;2024-02-21T10:19:53;23.40;42.40
15983;DHT22;14442;50.196;8.096;2024-02-21T10:22:19;23.50;42.30
15983;DHT22;14442;50.196;8.096;2024-02-21T10:24:48;23.60;42.90
15983;DHT22;14442;50.196;8.096;2024-02-21T10:27:14;23.70;42.20
15983;DHT22;14442;50.196;8.096;2024-02-21T10:29:41;23.70;42.20
15983;DHT22;14442;50.196;8.096;2024-02-21T10:32:08;23.80;42.20
15983;DHT22;14442;50.196;8.096;2024-02-21T10:34:36;23.80;42.20
15983;DHT22;14442;50.196;8.096;2024-02-21T10:37:03;23.90;42.20
15983;DHT22;14442;50.196;8.096;2024-02-21T10:39:31;24.00;42.20
15983;DHT22;14442;50.196;8.096;2024-02-21T10:41:59;24.00;42.20
15983;DHT22;14442;50.196;8.096;2024-02-21T10:44:26;24.00;42.10
15983;DHT22;14442;50.196;8.096;2024-02-21T10:46:54;24.00;42.30
15983;DHT22;14442;50.196;8.096;2024-02-21T10:49:22;24.10;42.40
15983;DHT22;14442;50.196;8.096;2024-02-21T10:51:50;24.10;42.30
15983;DHT22;14442;50.196;8.096;2024-02-21T10:54:24;24.10;42.30
15983;DHT22;14442;50.196;8.096;2024-02-21T10:56:55;24.10;42.20
15983;DHT22;14442;50.196;8.096;2024-02-21T10:59:24;24.20;42.30
15983;DHT22;14442;50.196;8.096;2024-02-21T11:01:52;24.20;42.30
15983;DHT22;14442;50.196;8.096;2024-02-21T11:04:18;24.30;42.30
15983;DHT22;14442;50.196;8.096;2024-02-21T11:06:45;24.40;42.20
15983;DHT22;14442;50.196;8.096;2024-02-21T11:09:12;24.40;42.10
15983;DHT22;14442;50.196;8.096;2024-02-21T11:11:39;24.50;42.30
15983;DHT22;14442;50.196;8.096;2024-02-21T11:14:06;24.50;42.00
15983;DHT22;14442;50.196;8.096;2024-02-21T11:16:38;24.50;42.10
15983;DHT22;14442;50.196;8.096;2024-02-21T11:19:07;24.60;42.10
15983;DHT22;14442;50.196;8.096;2024-02-21T11:21:35;24.60;42.10
15983;DHT22;14442;50.196;8.096;2024-02-21T11:24:02;24.60;42.10
15983;DHT22;14442;50.196;8.096;2024-02-21T11:26:29;24.60;42.10
15983;DHT22;14442;50.196;8.096;2024-02-21T11:28:56;24.60;42.10
15983;DHT22;14442;50.196;8.096;2024-02-21T11:31:23;24.70;42.20
15983;DHT22;14442;50.196;8.096;2024-02-21T11:33:53;24.70;42.30
15983;DHT22;14442;50.196;8.096;2024-02-21T11:36:24;24.60;42.10
15983;DHT22;14442;50.196;8.096;2024-02-21T11:38:51;24.70;42.30
15983;DHT22;14442;50.196;8.096;2024-02-21T11:41:17;24.50;42.80
15983;DHT22;14442;50.196;8.096;2024-02-21T11:43:44;24.30;42.90
15983;DHT22;14442;50.196;8.096;2024-02-21T11:46:10;24.10;42.40
15983;DHT22;14442;50.196;8.096;2024-02-21T11:48:37;24.00;42.30
15983;DHT22;14442;50.196;8.096;2024-02-21T11:51:06;24.10;42.50
15983;DHT22;14442;50.196;8.096;2024-02-21T11:53:32;24.10;42.20
15983;DHT22;14442;50.196;8.096;2024-02-21T11:55:59;24.00;42.60
15983;DHT22;14442;50.196;8.096;2024-02-21T11:58:25;23.90;42.20
15983;DHT22;14442;50.196;8.096;2024-02-21T12:00:52;23.90;41.80
15983;DHT22;14442;50.196;8.096;2024-02-21T12:03:19;24.00;41.70
15983;DHT22;14442;50.196;8.096;2024-02-21T12:05:46;24.10;41.50
15983;DHT22;14442;50.196;8.096;2024-02-21T12:08:14;24.10;41.60
15983;DHT22;14442;50.196;8.096;2024-02-21T12:10:41;24.20;41.90
15983;DHT22;14442;50.196;8.096;2024-02-21T12:13:09;24.30;41.70
15983;DHT22;14442;50.196;8.096;2024-02-21T12:15:38;24.50;41.70
15983;DHT22;14442;50.196;8.096;2024-02-21T12:18:05;24.50;41.50
15983;DHT22;14442;50.196;8.096;2024-02-21T12:20:31;24.60;41.50
15983;DHT22;14442;50.196;8.096;2024-02-21T12:22:59;24.60;41.50
15983;DHT22;14442;50.196;8.096;2024-02-21T12:25:27;24.60;41.50
15983;DHT22;14442;50.196;8.096;2024-02-21T12:27:54;24.60;41.60
15983;DHT22;14442;50.196;8.096;2024-02-21T12:30:21;24.70;41.60
15983;DHT22;14442;50.196;8.096;2024-02-21T12:32:48;24.70;41.70
15983;DHT22;14442;50.196;8.096;2024-02-21T12:35:15;24.70;41.70
15983;DHT22;14442;50.196;8.096;2024-02-21T12:37:42;24.70;42.30
15983;DHT22;14442;50.196;8.096;2024-02-21T12:40:09;24.80;41.80
15983;DHT22;14442;50.196;8.096;2024-02-21T12:42:39;24.70;41.70
15983;DHT22;14442;50.196;8.096;2024-02-21T12:45:06;24.70;41.70
15983;DHT22;14442;50.196;8.096;2024-02-21T12:47:33;24.70;41.70
15983;DHT22;14442;50.196;8.096;2024-02-21T12:49:59;24.80;41.90
15983;DHT22;14442;50.196;8.096;2024-02-21T12:52:28;24.80;41.80
15983;DHT22;14442;50.196;8.096;2024-02-21T12:54:55;24.80;41.90
15983;DHT22;14442;50.196;8.096;2024-02-21T12:57:24;24.80;41.90
15983;DHT22;14442;50.196;8.096;2024-02-21T12:59:52;24.80;42.00
15983;DHT22;14442;50.196;8.096;2024-02-21T13:02:18;24.80;41.90
15983;DHT22;14442;50.196;8.096;2024-02-21T13:04:46;24.80;42.00
15983;DHT22;14442;50.196;8.096;2024-02-21T13:07:13;24.80;42.00
15983;DHT22;14442;50.196;8.096;2024-02-21T13:09:39;24.70;41.90
15983;DHT22;14442;50.196;8.096;2024-02-21T13:12:06;24.80;42.00
15983;DHT22;14442;50.196;8.096;2024-02-21T13:14:33;24.80;42.10
15983;DHT22;14442;50.196;8.096;2024-02-21T13:17:01;24.80;42.00
15983;DHT22;14442;50.196;8.096;2024-02-21T13:19:28;24.80;42.00
15983;DHT22;14442;50.196;8.096;2024-02-21T13:21:55;24.70;42.00
15983;DHT22;14442;50.196;8.096;2024-02-21T13:24:22;24.80;42.00
15983;DHT22;14442;50.196;8.096;2024-02-21T13:26:48;24.80;42.00
15983;DHT22;14442;50.196;8.096;2024-02-21T13:29:15;24.80;42.10
15983;DHT22;14442;50.196;8.096;2024-02-21T13:31:41;24.70;42.00
15983;DHT22;14442;50.196;8.096;2024-02-21T13:34:09;24.80;42.70
15983;DHT22;14442;50.196;8.096;2024-02-21T13:36:36;24.80;42.10
15983;DHT22;14442;50.196;8.096;2024-02-21T13:39:02;24.70;42.10
15983;DHT22;14442;50.196;8.096;2024-02-21T13:41:30;24.70;42.10
15983;DHT22;14442;50.196;8.096;2024-02-21T13:43:57;24.60;42.20
15983;DHT22;14442;50.196;8.096;2024-02-21T13:46:25;24.50;42.30
15983;DHT22;14442;50.196;8.096;2024-02-21T13:48:52;24.50;42.40
15983;DHT22;14442;50.196;8.096;2024-02-21T13:51:24;24.50;42.40
15983;DHT22;14442;50.196;8.096;2024-02-21T13:53:51;24.50;42.40
15983;DHT22;14442;50.196;8.096;2024-02-21T13:56:18;24.40;42.30
15983;DHT22;14442;50.196;8.096;2024-02-21T13:58:44;24.40;42.30
15983;DHT22;14442;50.196;8.096;2024-02-21T14:01:11;24.40;42.40
15983;DHT22;14442;50.196;8.096;2024-02-21T14:03:37;24.40;42.40
15983;DHT22;14442;50.196;8.096;2024-02-21T14:06:04;24.30;42.40
15983;DHT22;14442;50.196;8.096;2024-02-21T14:08:32;24.30;42.30
15983;DHT22;14442;50.196;8.096;2024-02-21T14:10:59;24.30;42.30
15983;DHT22;14442;50.196;8.096;2024-02-21T14:13:26;24.30;42.40
15983;DHT22;14442;50.196;8.096;2024-02-21T14:15:53;24.20;42.30
15983;DHT22;14442;50.196;8.096;2024-02-21T14:18:20;24.30;42.50
15983;DHT22;14442;50.196;8.096;2024-02-21T14:20:46;24.30;42.40
15983;DHT22;14442;50.196;8.096;2024-02-21T14:23:13;24.30;42.30
15983;DHT22;14442;50.196;8.096;2024-02-21T14:25:41;24.30;42.50
15983;DHT22;14442;50.196;8.096;2024-02-21T14:28:07;24.30;42.50
15983;DHT22;14442;50.196;8.096;2024-02-21T14:30:34;24.30;42.50
15983;DHT22;14442;50.196;8.096;2024-02-21T14:33:01;24.20;42.50
15983;DHT22;14442;50.196;8.096;2024-02-21T14:35:27;24.20;42.40
15983;DHT22;14442;50.196;8.096;2024-02-21T14:37:54;24.20;42.50
15983;DHT22;14442;50.196;8.096;2024-02-21T14:40:22;24.20;42.50
15983;DHT22;14442;50.196;8.096;2024-02-21T14:42:50;24.20;42.50
15983;DHT22;14442;50.196;8.096;2024-02-21T14:45:18;24.20;42.50
15983;DHT22;14442;50.196;8.096;2024-02-21T14:47:44;24.10;42.50
15983;DHT22;14442;50.196;8.096;2024-02-21T14:50:11;24.10;42.50
15983;DHT22;14442;50.196;8.096;2024-02-21T14:52:37;24.10;42.50
15983;DHT22;14442;50.196;8.096;2024-02-21T14:55:04;24.10;42.50
15983;DHT22;14442;50.196;8.096;2024-02-21T14:57:31;24.10;42.60
15983;DHT22;14442;50.196;8.096;2024-02-21T14:59:59;24.10;42.50
15983;DHT22;14442;50.196;8.096;2024-02-21T15:02:26;24.10;42.70
15983;DHT22;14442;50.196;8.096;2024-02-21T15:04:53;24.10;42.60
15983;DHT22;14442;50.196;8.096;2024-02-21T15:07:19;24.10;42.60
15983;DHT22;14442;50.196;8.096;2024-02-21T15:09:49;24.00;42.50
15983;DHT22;14442;50.196;8.096;2024-02-21T15:12:16;24.00;42.60
15983;DHT22;14442;50.196;8.096;2024-02-21T15:14:42;24.00;42.60
15983;DHT22;14442;50.196;8.096;2024-02-21T15:17:11;24.00;42.70
15983;DHT22;14442;50.196;8.096;2024-02-21T15:19:37;24.00;42.70
15983;DHT22;14442;50.196;8.096;2024-02-21T15:22:08;24.00;42.60
15983;DHT22;14442;50.196;8.096;2024-02-21T15:24:36;23.90;42.60
15983;DHT22;14442;50.196;8.096;2024-02-21T15:27:03;23.90;42.60
15983;DHT22;14442;50.196;8.096;2024-02-21T15:29:30;23.90;42.60